Latest Weather Observations for Coldstream

IDV60901

Issued at 12:35 pm EST Saturday 2 August 2014 (issued every 10 minutes, with the page automatically refreshed every 10 minutes)

About weather observations | Map of Melbourne area stations | Latest observations for Melbourne area | Other Formats
Station Details ID: 086383 Name: COLDSTREAM Lat: -37.72 Lon: 145.41 Height: 83.0 m
Data from the previous 72 hours. | See also: Recent months at Coldstream
Date/Time
EST
Tmp

°C
App
Tmp
°C
Dew
Point
°C
Rel
Hum
%
Delta-T

°C
Wind Press
QNH
hPa
Press
MSL
hPa
Rain
since
9 am
mm
Dir
 
Spd
km/h
Gust
km/h
Spd
kts
Gust
kts
02/12:30pm 9.4 7.4 4.2 70 2.3 W 4 9 2 5 1030.9 - 0.0
02/12:00pm 8.2 5.4 5.3 82 1.3 N 9 15 5 8 1031.0 1031.1 0.0
02/11:30am 7.8 5.0 3.3 73 1.9 ESE 7 11 4 6 1031.5 - 0.0
02/11:00am 8.1 6.0 3.8 74 1.8 N 4 9 2 5 1031.2 1031.3 0.0
02/10:30am 7.2 4.6 4.3 82 1.3 NNE 7 13 4 7 1031.2 - 0.0
02/10:00am 6.3 4.5 5.4 94 0.4 NNW 4 9 2 5 1030.7 1030.8 0.0
02/09:30am 5.2 2.3 4.8 97 0.2 N 9 13 5 7 1030.1 - 0.0
02/09:00am 4.8 2.5 4.7 99 0.0 NW 6 13 3 7 1029.6 1029.7 14.6
02/08:30am 4.3 2.6 4.2 99 0.0 SW 2 9 1 5 1029.6 - 14.4
02/08:00am 3.6 2.2 3.5 99 0.0 CALM 0 0 0 0 1028.9 1029.0 14.4
02/07:30am 3.3 1.1 3.2 99 0.0 WNW 4 9 2 5 1028.3 - 14.4
02/07:00am 2.5 0.9 2.4 99 0.0 CALM 0 0 0 0 1027.7 1027.8 14.4
02/06:30am 2.8 1.2 2.7 99 0.0 CALM 0 0 0 0 1027.1 - 14.4
02/06:00am 2.7 0.4 2.6 99 0.0 S 4 9 2 5 1026.8 1026.9 14.2
02/05:30am 1.5 -0.6 1.4 99 0.0 SSW 2 6 1 3 1026.0 - 14.0
02/05:00am 1.8 0.1 1.7 99 0.0 CALM 0 0 0 0 1025.7 1025.9 14.0
02/04:30am 1.6 -0.2 1.3 98 0.1 CALM 0 0 0 0 1025.4 - 14.0
02/04:00am 2.6 0.6 2.5 99 0.0 N 2 7 1 4 1025.1 1025.3 14.0
02/03:30am 2.9 1.4 2.8 99 0.0 CALM 0 0 0 0 1024.8 - 14.0
02/03:00am 2.1 0.4 1.8 98 0.1 CALM 0 0 0 0 1024.4 1024.6 13.6
02/02:30am 1.8 -0.3 1.5 98 0.1 ENE 2 6 1 3 1024.1 - 13.6
02/02:00am 2.1 0.4 1.7 97 0.2 CALM 0 0 0 0 1023.8 1024.0 13.6
02/01:30am 3.0 0.3 2.7 98 0.1 NNW 6 7 3 4 1023.5 - 13.6
02/01:00am 2.8 0.1 2.4 97 0.2 NNW 6 7 3 4 1023.0 1023.2 13.6
02/12:30am 2.9 0.2 2.5 97 0.2 N 6 9 3 5 1022.7 - 13.6
02/12:00am 2.7 1.0 2.1 96 0.2 CALM 0 0 0 0 1022.7 1022.9 13.4
 
Date/Time
EST
Tmp

°C
App
Tmp
°C
Dew
Point
°C
Rel
Hum
%
Delta-T

°C
Wind Press
QNH
hPa
Press
MSL
hPa
Rain
since
9 am
mm
Dir
 
Spd
km/h
Gust
km/h
Spd
kts
Gust
kts
01/11:30pm 4.0 2.2 3.3 95 0.3 NNW 2 7 1 4 1022.1 - 13.4
01/11:00pm 4.5 2.8 3.8 95 0.3 NW 2 7 1 4 1021.5 1021.6 13.4
01/10:30pm 4.7 2.1 4.0 95 0.3 WNW 7 13 4 7 1021.2 - 13.4
01/10:00pm 4.7 0.2 4.0 95 0.3 WNW 17 24 9 13 1020.9 1021.0 13.0
01/09:30pm 4.5 1.8 3.8 95 0.3 NNW 7 11 4 6 1020.2 - 12.4
01/09:00pm 4.6 1.5 3.7 94 0.4 NW 9 13 5 7 1019.5 1019.6 12.2
01/08:30pm 5.3 1.1 3.8 90 0.6 WNW 15 22 8 12 1018.7 - 12.0
01/08:00pm 5.4 1.5 3.6 88 0.8 SSE 13 20 7 11 1017.8 1017.9 11.8
01/07:30pm 5.7 3.4 5.0 95 0.3 SW 6 13 3 7 1017.1 - 10.8
01/07:00pm 5.7 3.4 5.0 95 0.3 N 6 7 3 4 1016.2 1016.3 9.2
01/06:30pm 5.4 1.3 4.4 93 0.4 W 15 22 8 12 1015.6 - 9.2
01/06:00pm 5.8 4.6 4.6 92 0.5 WNW 0 6 0 3 1014.6 1014.7 8.8
01/05:30pm 5.7 1.5 4.0 89 0.7 W 15 22 8 12 1013.3 - 8.8
01/05:00pm 4.9 0.7 3.9 93 0.4 SSE 15 28 8 15 1012.5 1012.7 8.6
01/04:30pm 5.7 3.2 4.5 92 0.5 N 7 15 4 8 1011.4 - 7.0
01/04:00pm 5.4 1.6 3.9 90 0.6 N 13 19 7 10 1010.9 1011.0 6.2
01/03:30pm 6.4 2.9 5.5 94 0.4 NW 13 19 7 10 1010.5 - 6.2
01/03:00pm 5.3 0.8 4.0 91 0.6 W 17 24 9 13 1010.2 1010.3 5.8
01/02:30pm 5.1 1.2 3.6 90 0.6 W 13 22 7 12 1009.6 - 4.4
01/02:00pm 4.4 -2.5 2.6 88 0.7 WSW 28 63 15 34 1009.0 1009.1 3.4
01/01:54pm 6.2 -1.0 3.2 81 1.3 W 30 63 16 34 1008.6 - 1.8
01/01:30pm 6.9 3.6 4.7 86 1.0 WNW 11 20 6 11 1008.0 - 1.6
01/01:00pm 6.3 1.8 4.0 85 1.0 WNW 17 26 9 14 1007.4 1007.5 1.4
01/12:30pm 5.9 0.4 3.9 87 0.9 WNW 22 39 12 21 1006.9 - 1.2
01/12:00pm 7.4 1.4 3.1 74 1.8 NNW 24 41 13 22 1006.0 1006.1 0.0
01/11:30am 8.5 2.7 2.3 65 2.6 NNW 22 35 12 19 1006.0 - 0.0
01/11:00am 8.1 2.3 2.4 67 2.4 NNW 22 33 12 18 1005.8 1005.9 0.0
01/10:30am 7.5 2.4 2.8 72 2.0 NNW 19 30 10 16 1005.8 - 0.0
01/10:00am 7.0 1.6 2.7 74 1.8 N 20 30 11 16 1005.3 1005.4 0.0
01/09:30am 6.5 0.8 2.8 77 1.5 N 22 32 12 17 1004.9 - 0.0
01/09:00am 6.4 1.6 2.7 77 1.5 NNE 17 24 9 13 1004.5 1004.6 10.8
01/08:30am 6.0 1.9 2.1 76 1.6 N 13 24 7 13 1004.8 - 10.8
01/08:00am 5.9 1.4 2.2 77 1.5 N 15 24 8 13 1004.8 1004.9 10.8
01/07:30am 5.4 -0.1 1.9 78 1.4 N 20 35 11 19 1003.8 - 10.8
01/07:00am 5.6 -0.7 1.7 76 1.6 N 24 35 13 19 1003.0 1003.1 10.8
01/06:30am 5.6 0.3 1.9 77 1.5 N 19 28 10 15 1003.1 - 10.8
01/06:00am 4.9 0.3 1.7 80 1.3 N 15 20 8 11 1003.3 1003.4 10.8
01/05:30am 5.2 0.3 1.9 79 1.3 N 17 22 9 12 1003.3 - 10.8
01/05:00am 5.2 0.6 1.5 77 1.5 N 15 24 8 13 1003.3 1003.4 10.8
01/04:30am 5.8 0.9 1.9 76 1.6 N 17 24 9 13 1003.3 - 10.8
01/04:00am 5.5 1.0 2.2 79 1.3 N 15 20 8 11 1003.2 1003.3 10.8
01/03:30am 5.0 1.6 1.8 80 1.3 N 9 13 5 7 1003.6 - 10.8
01/03:00am 4.8 1.0 1.6 80 1.3 N 11 15 6 8 1003.8 1003.9 10.8
01/02:30am 5.1 1.2 1.4 77 1.5 N 11 15 6 8 1003.4 - 10.8
01/02:00am 5.7 2.2 1.1 72 1.8 NNW 9 20 5 11 1003.2 1003.3 10.8
01/01:30am 6.2 1.9 1.3 71 2.0 NNW 13 22 7 12 1003.0 - 10.8
01/01:00am 6.6 2.4 1.5 70 2.1 NW 13 24 7 13 1002.8 1002.9 10.8
01/12:30am 6.8 2.2 1.5 69 2.1 NW 15 22 8 12 1002.7 - 10.8
01/12:00am 7.1 1.8 1.6 68 2.3 NW 19 32 10 17 1002.6 1002.7 10.8
 
Date/Time
EST
Tmp

°C
App
Tmp
°C
Dew
Point
°C
Rel
Hum
%
Delta-T

°C
Wind Press
QNH
hPa
Press
MSL
hPa
Rain
since
9 am
mm
Dir
 
Spd
km/h
Gust
km/h
Spd
kts
Gust
kts
31/11:30pm 7.4 2.5 1.9 68 2.3 NW 17 28 9 15 1002.8 - 10.8
31/11:00pm 7.4 2.5 2.3 70 2.1 NW 17 32 9 17 1002.7 1002.8 10.8
31/10:30pm 7.3 2.9 2.8 73 1.9 NW 15 28 8 15 1002.3 - 10.8
31/10:00pm 7.4 2.1 2.9 73 1.9 NW 20 30 11 16 1002.4 1002.5 10.8
31/09:30pm 7.1 2.9 3.7 79 1.5 NW 15 26 8 14 1002.4 - 10.8
31/09:00pm 6.8 3.1 4.3 84 1.1 NNW 13 20 7 11 1002.1 1002.2 10.8
31/08:30pm 6.6 3.0 4.9 89 0.7 NNW 13 20 7 11 1001.9 - 10.8
31/08:00pm 6.3 2.8 5.3 93 0.4 NNW 13 20 7 11 1002.0 1002.1 10.8
31/07:30pm 6.2 3.5 5.5 95 0.3 N 9 15 5 8 1002.2 - 10.0
31/07:00pm 6.3 3.7 5.9 97 0.2 N 9 15 5 8 1001.4 1001.6 9.2
31/06:30pm 6.2 3.1 5.6 96 0.3 WNW 11 15 6 8 1001.2 - 8.0
31/06:00pm 6.4 1.8 5.5 94 0.4 W 19 28 10 15 1001.3 1001.5 6.0
31/05:30pm 6.6 -0.5 5.4 92 0.5 WSW 32 43 17 23 1000.0 - 4.2
31/05:18pm 6.8 -0.3 5.6 92 0.5 W 32 52 17 28 1000.1 - 3.4
31/05:00pm 7.7 2.8 7.0 95 0.3 W 22 39 12 21 999.4 999.6 2.6
31/04:36pm 8.0 1.6 6.8 92 0.6 WSW 30 48 16 26 998.7 - 1.4
31/04:30pm 8.2 1.8 7.1 93 0.5 WSW 30 44 16 24 998.7 - 1.2
31/04:10pm 8.8 0.7 6.8 87 0.9 WSW 39 57 21 31 998.4 - 0.2
31/04:00pm 10.1 1.5 6.3 77 1.8 WSW 41 57 22 31 997.6 997.7 0.0
31/03:44pm 14.1 4.2 4.9 54 4.3 W 46 57 25 31 996.8 - 0.0
31/03:30pm 17.7 8.3 4.3 41 6.4 NNW 43 70 23 38 994.8 - 0.0
31/03:00pm 18.1 10.1 5.7 44 6.1 NNW 37 69 20 37 995.1 995.2 0.0
31/02:30pm 18.0 10.0 5.6 44 6.1 NNW 37 61 20 33 995.3 - 0.0
31/02:00pm 17.9 9.2 5.8 45 6.0 N 41 61 22 33 995.0 995.1 0.0
31/01:30pm 17.7 9.7 5.9 46 5.8 N 37 61 20 33 995.4 - 0.0
31/01:00pm 17.5 8.5 6.4 48 5.5 N 43 65 23 35 996.6 996.7 0.0
31/12:30pm 17.4 9.1 6.3 48 5.5 NNW 39 65 21 35 997.7 - 0.0
31/12:01pm 17.5 9.8 7.3 51 5.1 N 37 57 20 31 998.2 - 0.0
31/12:00pm 17.4 9.8 7.5 52 5.0 N 37 54 20 29 998.3 998.5 0.0
31/11:30am 16.5 9.3 7.7 56 4.4 N 35 54 19 29 998.9 - 0.0
31/11:00am 15.4 6.7 7.9 61 3.8 N 43 65 23 35 999.6 999.8 0.0
31/10:30am 15.0 5.4 7.8 62 3.6 N 48 69 26 37 1000.1 - 0.0
31/10:00am 14.9 6.6 7.7 62 3.6 N 41 70 22 38 1000.7 1000.9 0.0
31/09:30am 14.9 7.5 8.2 64 3.4 N 37 61 20 33 1001.5 - 0.0
31/09:00am 14.8 6.6 8.3 65 3.3 N 41 65 22 35 1002.0 1002.1 0.0
31/08:30am 14.2 6.8 8.2 67 3.0 N 37 59 20 32 1002.5 - 0.0
31/08:00am 14.3 7.6 8.3 67 3.0 N 33 52 18 28 1002.9 1003.0 0.0
31/07:31am 14.3 6.9 8.3 67 3.0 N 37 56 20 30 1003.2 - 0.0
31/07:30am 14.4 6.6 8.1 66 3.2 N 39 56 21 30 1003.1 - 0.0
31/07:00am 14.5 8.0 8.2 66 3.2 N 32 46 17 25 1003.9 1004.0 0.0
31/06:30am 14.2 7.7 8.2 67 3.0 N 32 57 17 31 1004.3 - 0.0
31/06:26am 14.3 7.6 8.0 66 3.1 N 33 57 18 31 1004.2 - 0.0
31/06:00am 13.9 9.7 8.1 68 2.9 N 20 30 11 16 1004.8 1004.9 0.0
31/05:30am 13.9 8.1 7.9 67 3.0 N 28 44 15 24 1004.9 - 0.0
31/05:00am 13.9 9.1 7.2 64 3.3 N 22 37 12 20 1005.4 1005.5 0.0
31/04:30am 13.8 9.3 7.1 64 3.3 N 20 32 11 17 1005.7 - 0.0
31/04:00am 13.8 9.3 7.1 64 3.3 N 20 30 11 16 1006.1 1006.2 0.0
31/03:30am 14.1 9.0 7.6 65 3.2 N 24 35 13 19 1006.8 - 0.0
31/03:00am 14.0 8.9 7.8 66 3.1 N 24 39 13 21 1007.4 1007.5 0.0
31/02:30am 14.2 9.2 7.9 66 3.1 N 24 39 13 21 1007.8 - 0.0
31/02:00am 14.4 10.0 8.8 69 2.9 N 22 54 12 29 1008.5 1008.7 0.0
31/01:30am 14.4 10.0 9.0 70 2.8 N 22 32 12 17 1008.5 - 0.0
31/01:00am 13.7 10.0 9.6 76 2.1 N 19 28 10 15 1008.7 1008.9 0.0
31/12:30am 14.1 10.2 9.3 73 2.5 N 20 35 11 19 1009.7 - 0.0
31/12:00am 14.2 9.9 9.2 72 2.6 N 22 30 12 16 1009.8 1010.0 0.0
 
Date/Time
EST
Tmp

°C
App
Tmp
°C
Dew
Point
°C
Rel
Hum
%
Delta-T

°C
Wind Press
QNH
hPa
Press
MSL
hPa
Rain
since
9 am
mm
Dir
 
Spd
km/h
Gust
km/h
Spd
kts
Gust
kts
30/11:30pm 14.1 9.8 9.3 73 2.5 N 22 35 12 19 1010.1 - 0.0
30/11:00pm 14.2 10.0 9.6 74 2.4 N 22 32 12 17 1010.2 1010.4 0.0
30/10:30pm 14.9 11.3 8.2 64 3.4 N 17 26 9 14 1010.7 - 0.0
30/10:00pm 15.4 11.1 7.7 60 3.9 NNW 20 35 11 19 1011.2 1011.4 0.0
30/09:30pm 15.4 10.9 8.4 63 3.6 NNW 22 37 12 20 1011.1 - 0.0
30/09:00pm 15.1 10.9 9.7 70 2.8 N 22 35 12 19 1011.0 1011.2 0.0
30/08:30pm 14.9 10.3 9.7 71 2.7 N 24 35 13 19 1010.9 - 0.0
30/08:00pm 14.9 11.7 9.9 72 2.6 N 17 28 9 15 1011.0 1011.2 0.0
30/07:30pm 15.0 11.3 10.2 73 2.5 N 20 32 11 17 1011.4 - 0.0
30/07:00pm 15.1 11.0 10.1 72 2.6 N 22 35 12 19 1011.0 1011.2 0.0
30/06:30pm 14.8 11.2 10.4 75 2.3 N 20 32 11 17 1011.1 - 0.0
30/06:00pm 14.8 11.2 10.4 75 2.3 N 20 28 11 15 1011.1 1011.3 0.0
30/05:30pm 14.9 11.2 10.3 74 2.4 N 20 30 11 16 1011.1 - 0.0
30/05:00pm 15.0 11.3 10.2 73 2.5 N 20 32 11 17 1010.9 1011.1 0.0
30/04:30pm 15.8 11.6 9.7 67 3.2 NNW 22 39 12 21 1011.0 - 0.0
30/04:00pm 16.1 11.2 10.0 67 3.2 NNW 26 37 14 20 1010.8 1011.0 0.0
30/03:30pm 16.3 11.1 10.4 68 3.1 NNW 28 43 15 23 1010.8 - 0.0
30/03:02pm 17.3 12.1 10.2 63 3.8 N 28 46 15 25 1010.5 - 0.0
30/03:00pm 17.4 12.4 10.8 65 3.6 N 28 41 15 22 1010.5 1010.7 0.0
30/02:30pm 17.3 12.5 10.4 64 3.7 NNW 26 41 14 22 1010.6 - 0.0
30/02:00pm 15.7 12.3 11.3 75 2.4 N 20 30 11 16 1010.7 1010.9 0.0
30/01:30pm 15.7 10.9 11.7 77 2.2 N 28 39 15 21 1011.0 - 0.0
30/01:00pm 15.7 11.2 11.5 76 2.3 N 26 39 14 21 1011.2 1011.4 0.0

Latest Capital City Observations: Canberra | Sydney | Melbourne | Brisbane | Adelaide | Perth | Hobart | Darwin

Other Formats:

Comma delimited format used in spreadsheet applications
http://www.bom.gov.au/fwo/IDV60901/IDV60901.94864.axf

JavaScript Object Notation format (JSON) in row-major order
http://www.bom.gov.au/fwo/IDV60901/IDV60901.94864.json